sensor_id;sensor_type;location;lat;lon;timestamp;temperature;humidity
24638;DHT22;12773;50.162;8.548;2023-05-27T00:00:29;15.10;95.00
24638;DHT22;12773;50.162;8.548;2023-05-27T00:03:17;15.00;95.10
24638;DHT22;12773;50.162;8.548;2023-05-27T00:06:06;14.90;95.30
24638;DHT22;12773;50.162;8.548;2023-05-27T00:08:53;15.00;95.40
24638;DHT22;12773;50.162;8.548;2023-05-27T00:11:41;15.00;95.30
24638;DHT22;12773;50.162;8.548;2023-05-27T00:14:28;15.00;95.30
24638;DHT22;12773;50.162;8.548;2023-05-27T00:17:16;15.10;95.30
24638;DHT22;12773;50.162;8.548;2023-05-27T00:20:04;15.10;95.30
24638;DHT22;12773;50.162;8.548;2023-05-27T00:22:53;15.00;95.40
24638;DHT22;12773;50.162;8.548;2023-05-27T00:25:41;15.10;95.60
24638;DHT22;12773;50.162;8.548;2023-05-27T00:28:29;15.00;95.50
24638;DHT22;12773;50.162;8.548;2023-05-27T00:31:17;15.00;95.70
24638;DHT22;12773;50.162;8.548;2023-05-27T00:34:05;15.00;95.80
24638;DHT22;12773;50.162;8.548;2023-05-27T00:36:52;15.00;95.70
24638;DHT22;12773;50.162;8.548;2023-05-27T00:39:39;15.00;95.60
24638;DHT22;12773;50.162;8.548;2023-05-27T00:42:27;15.00;95.70
24638;DHT22;12773;50.162;8.548;2023-05-27T00:45:14;15.00;95.70
24638;DHT22;12773;50.162;8.548;2023-05-27T00:48:02;15.00;95.80
24638;DHT22;12773;50.162;8.548;2023-05-27T00:50:50;15.00;95.90
24638;DHT22;12773;50.162;8.548;2023-05-27T00:53:39;14.90;95.90
24638;DHT22;12773;50.162;8.548;2023-05-27T00:56:27;14.90;96.10
24638;DHT22;12773;50.162;8.548;2023-05-27T00:59:15;14.80;96.10
24638;DHT22;12773;50.162;8.548;2023-05-27T01:02:02;14.90;96.10
24638;DHT22;12773;50.162;8.548;2023-05-27T01:04:50;14.90;96.10
24638;DHT22;12773;50.162;8.548;2023-05-27T01:10:46;14.80;96.20
24638;DHT22;12773;50.162;8.548;2023-05-27T01:13:43;14.80;96.30
24638;DHT22;12773;50.162;8.548;2023-05-27T01:16:32;14.80;96.30
24638;DHT22;12773;50.162;8.548;2023-05-27T01:19:33;14.80;96.40
24638;DHT22;12773;50.162;8.548;2023-05-27T01:22:19;14.80;96.50
24638;DHT22;12773;50.162;8.548;2023-05-27T01:25:07;14.80;96.40
24638;DHT22;12773;50.162;8.548;2023-05-27T01:27:55;14.80;96.30
24638;DHT22;12773;50.162;8.548;2023-05-27T01:30:43;14.70;96.40
24638;DHT22;12773;50.162;8.548;2023-05-27T01:33:32;14.80;96.60
24638;DHT22;12773;50.162;8.548;2023-05-27T01:36:22;14.70;96.70
24638;DHT22;12773;50.162;8.548;2023-05-27T01:39:12;14.70;96.80
24638;DHT22;12773;50.162;8.548;2023-05-27T01:42:00;14.70;96.80
24638;DHT22;12773;50.162;8.548;2023-05-27T01:44:49;14.70;96.90
24638;DHT22;12773;50.162;8.548;2023-05-27T01:47:37;14.60;97.10
24638;DHT22;12773;50.162;8.548;2023-05-27T01:50:24;14.60;97.00
24638;DHT22;12773;50.162;8.548;2023-05-27T01:53:11;14.60;97.30
24638;DHT22;12773;50.162;8.548;2023-05-27T01:55:59;14.60;97.40
24638;DHT22;12773;50.162;8.548;2023-05-27T01:58:48;14.50;97.50
24638;DHT22;12773;50.162;8.548;2023-05-27T02:01:35;14.50;97.70
24638;DHT22;12773;50.162;8.548;2023-05-27T02:04:23;14.40;97.80
24638;DHT22;12773;50.162;8.548;2023-05-27T02:07:10;14.40;97.90
24638;DHT22;12773;50.162;8.548;2023-05-27T02:09:58;14.40;98.20
24638;DHT22;12773;50.162;8.548;2023-05-27T02:12:45;14.40;98.20
24638;DHT22;12773;50.162;8.548;2023-05-27T02:15:34;14.30;98.40
24638;DHT22;12773;50.162;8.548;2023-05-27T02:18:22;14.40;98.40
24638;DHT22;12773;50.162;8.548;2023-05-27T02:21:09;14.40;98.50
24638;DHT22;12773;50.162;8.548;2023-05-27T02:23:57;14.30;98.60
24638;DHT22;12773;50.162;8.548;2023-05-27T02:26:45;14.30;98.70
24638;DHT22;12773;50.162;8.548;2023-05-27T02:29:32;14.20;98.80
24638;DHT22;12773;50.162;8.548;2023-05-27T02:32:22;14.30;98.90
24638;DHT22;12773;50.162;8.548;2023-05-27T02:35:12;14.20;99.10
24638;DHT22;12773;50.162;8.548;2023-05-27T02:37:58;14.20;99.20
24638;DHT22;12773;50.162;8.548;2023-05-27T02:40:49;14.20;99.20
24638;DHT22;12773;50.162;8.548;2023-05-27T02:43:36;14.20;99.20
24638;DHT22;12773;50.162;8.548;2023-05-27T02:46:24;14.20;99.30
24638;DHT22;12773;50.162;8.548;2023-05-27T02:49:11;14.20;99.30
24638;DHT22;12773;50.162;8.548;2023-05-27T02:51:58;14.20;99.30
24638;DHT22;12773;50.162;8.548;2023-05-27T02:54:46;14.20;99.40
24638;DHT22;12773;50.162;8.548;2023-05-27T02:57:33;14.20;99.40
24638;DHT22;12773;50.162;8.548;2023-05-27T03:00:21;14.10;99.70
24638;DHT22;12773;50.162;8.548;2023-05-27T03:03:08;14.10;99.60
24638;DHT22;12773;50.162;8.548;2023-05-27T03:05:56;14.10;99.80
24638;DHT22;12773;50.162;8.548;2023-05-27T03:08:44;14.00;99.90
24638;DHT22;12773;50.162;8.548;2023-05-27T03:11:32;14.00;99.90
24638;DHT22;12773;50.162;8.548;2023-05-27T03:14:19;14.00;99.90
24638;DHT22;12773;50.162;8.548;2023-05-27T03:17:07;14.00;99.90
24638;DHT22;12773;50.162;8.548;2023-05-27T03:19:54;13.90;99.90
24638;DHT22;12773;50.162;8.548;2023-05-27T03:22:42;13.90;99.90
24638;DHT22;12773;50.162;8.548;2023-05-27T03:25:29;13.90;99.90
24638;DHT22;12773;50.162;8.548;2023-05-27T03:28:19;13.90;99.90
24638;DHT22;12773;50.162;8.548;2023-05-27T03:31:06;13.90;99.90
24638;DHT22;12773;50.162;8.548;2023-05-27T03:33:54;13.80;99.90
24638;DHT22;12773;50.162;8.548;2023-05-27T03:36:42;13.80;99.90
24638;DHT22;12773;50.162;8.548;2023-05-27T03:39:31;13.80;99.90
24638;DHT22;12773;50.162;8.548;2023-05-27T03:42:19;13.80;99.90
24638;DHT22;12773;50.162;8.548;2023-05-27T03:45:07;13.70;99.90
24638;DHT22;12773;50.162;8.548;2023-05-27T03:47:55;13.70;99.90
24638;DHT22;12773;50.162;8.548;2023-05-27T03:50:42;13.70;99.90
24638;DHT22;12773;50.162;8.548;2023-05-27T03:53:30;13.80;99.90
24638;DHT22;12773;50.162;8.548;2023-05-27T03:56:17;13.70;99.90
24638;DHT22;12773;50.162;8.548;2023-05-27T03:59:05;13.70;99.90
24638;DHT22;12773;50.162;8.548;2023-05-27T04:01:55;13.80;99.90
24638;DHT22;12773;50.162;8.548;2023-05-27T04:04:42;13.80;99.90
24638;DHT22;12773;50.162;8.548;2023-05-27T04:07:30;13.90;99.90
24638;DHT22;12773;50.162;8.548;2023-05-27T04:10:18;13.80;99.90
24638;DHT22;12773;50.162;8.548;2023-05-27T04:13:06;13.80;99.90
24638;DHT22;12773;50.162;8.548;2023-05-27T04:15:54;13.90;99.90
24638;DHT22;12773;50.162;8.548;2023-05-27T04:18:45;13.90;99.90
24638;DHT22;12773;50.162;8.548;2023-05-27T04:21:35;14.00;99.90
24638;DHT22;12773;50.162;8.548;2023-05-27T04:24:22;14.00;99.90
24638;DHT22;12773;50.162;8.548;2023-05-27T04:27:10;14.00;99.90
24638;DHT22;12773;50.162;8.548;2023-05-27T04:29:59;14.00;99.90
24638;DHT22;12773;50.162;8.548;2023-05-27T04:32:47;14.00;99.90
24638;DHT22;12773;50.162;8.548;2023-05-27T04:35:35;14.10;99.90
24638;DHT22;12773;50.162;8.548;2023-05-27T04:38:22;14.10;99.90
24638;DHT22;12773;50.162;8.548;2023-05-27T04:41:10;14.20;99.90
24638;DHT22;12773;50.162;8.548;2023-05-27T04:44:00;14.20;99.90
24638;DHT22;12773;50.162;8.548;2023-05-27T04:46:47;14.30;99.90
24638;DHT22;12773;50.162;8.548;2023-05-27T04:49:34;14.40;99.90
24638;DHT22;12773;50.162;8.548;2023-05-27T04:52:22;14.50;99.90
24638;DHT22;12773;50.162;8.548;2023-05-27T04:55:10;14.50;99.90
24638;DHT22;12773;50.162;8.548;2023-05-27T04:57:59;14.40;99.90
24638;DHT22;12773;50.162;8.548;2023-05-27T05:00:49;14.50;99.90
24638;DHT22;12773;50.162;8.548;2023-05-27T05:03:38;14.60;99.90
24638;DHT22;12773;50.162;8.548;2023-05-27T05:06:32;14.60;99.90
24638;DHT22;12773;50.162;8.548;2023-05-27T05:09:16;14.70;99.90
24638;DHT22;12773;50.162;8.548;2023-05-27T05:12:03;14.80;99.90
24638;DHT22;12773;50.162;8.548;2023-05-27T05:14:52;14.80;99.90
24638;DHT22;12773;50.162;8.548;2023-05-27T05:17:40;14.90;99.90
24638;DHT22;12773;50.162;8.548;2023-05-27T05:20:29;14.90;99.90
24638;DHT22;12773;50.162;8.548;2023-05-27T05:23:17;14.90;99.90
24638;DHT22;12773;50.162;8.548;2023-05-27T05:26:04;14.90;99.90
24638;DHT22;12773;50.162;8.548;2023-05-27T05:28:53;15.00;99.90
24638;DHT22;12773;50.162;8.548;2023-05-27T05:31:40;15.00;99.90
24638;DHT22;12773;50.162;8.548;2023-05-27T05:34:31;15.00;99.90
24638;DHT22;12773;50.162;8.548;2023-05-27T05:37:18;15.10;99.90
24638;DHT22;12773;50.162;8.548;2023-05-27T05:40:06;15.10;99.90
24638;DHT22;12773;50.162;8.548;2023-05-27T05:42:57;15.10;99.90
24638;DHT22;12773;50.162;8.548;2023-05-27T05:45:45;15.20;99.90
24638;DHT22;12773;50.162;8.548;2023-05-27T05:48:32;15.30;99.90
24638;DHT22;12773;50.162;8.548;2023-05-27T05:51:20;15.30;99.90
24638;DHT22;12773;50.162;8.548;2023-05-27T05:54:07;15.30;99.90
24638;DHT22;12773;50.162;8.548;2023-05-27T05:56:55;15.40;99.90
24638;DHT22;12773;50.162;8.548;2023-05-27T05:59:43;15.50;99.90
24638;DHT22;12773;50.162;8.548;2023-05-27T06:02:30;15.50;99.90
24638;DHT22;12773;50.162;8.548;2023-05-27T06:05:18;15.60;99.90
24638;DHT22;12773;50.162;8.548;2023-05-27T06:08:05;15.70;99.90
24638;DHT22;12773;50.162;8.548;2023-05-27T06:10:55;15.70;99.90
24638;DHT22;12773;50.162;8.548;2023-05-27T06:13:42;15.70;99.90
24638;DHT22;12773;50.162;8.548;2023-05-27T06:16:30;15.70;99.90
24638;DHT22;12773;50.162;8.548;2023-05-27T06:19:17;15.80;99.90
24638;DHT22;12773;50.162;8.548;2023-05-27T06:22:04;15.90;99.90
24638;DHT22;12773;50.162;8.548;2023-05-27T06:24:52;15.80;99.90
24638;DHT22;12773;50.162;8.548;2023-05-27T06:27:40;15.90;99.90
24638;DHT22;12773;50.162;8.548;2023-05-27T06:30:31;15.80;99.90
24638;DHT22;12773;50.162;8.548;2023-05-27T06:33:17;16.00;99.90
24638;DHT22;12773;50.162;8.548;2023-05-27T06:36:05;16.00;99.90
24638;DHT22;12773;50.162;8.548;2023-05-27T06:38:53;16.30;99.90
24638;DHT22;12773;50.162;8.548;2023-05-27T06:41:41;16.30;99.80
24638;DHT22;12773;50.162;8.548;2023-05-27T06:44:28;16.30;99.90
24638;DHT22;12773;50.162;8.548;2023-05-27T06:47:16;16.50;99.90
24638;DHT22;12773;50.162;8.548;2023-05-27T06:50:04;16.60;99.90
24638;DHT22;12773;50.162;8.548;2023-05-27T06:52:52;16.70;99.20
24638;DHT22;12773;50.162;8.548;2023-05-27T06:55:39;16.70;99.40
24638;DHT22;12773;50.162;8.548;2023-05-27T06:58:32;16.80;99.30
24638;DHT22;12773;50.162;8.548;2023-05-27T07:01:20;16.90;99.00
24638;DHT22;12773;50.162;8.548;2023-05-27T07:04:08;17.00;99.30
24638;DHT22;12773;50.162;8.548;2023-05-27T07:06:55;16.80;98.20
24638;DHT22;12773;50.162;8.548;2023-05-27T07:09:43;16.90;98.70
24638;DHT22;12773;50.162;8.548;2023-05-27T07:12:32;17.00;98.60
24638;DHT22;12773;50.162;8.548;2023-05-27T07:15:19;17.20;98.50
24638;DHT22;12773;50.162;8.548;2023-05-27T07:18:07;17.20;98.10
24638;DHT22;12773;50.162;8.548;2023-05-27T07:20:55;17.30;98.20
24638;DHT22;12773;50.162;8.548;2023-05-27T07:23:43;17.20;98.00
24638;DHT22;12773;50.162;8.548;2023-05-27T07:26:32;17.30;97.80
24638;DHT22;12773;50.162;8.548;2023-05-27T07:29:19;17.30;97.70
24638;DHT22;12773;50.162;8.548;2023-05-27T07:32:08;17.30;97.80
24638;DHT22;12773;50.162;8.548;2023-05-27T07:34:56;17.30;97.70
24638;DHT22;12773;50.162;8.548;2023-05-27T07:37:45;17.30;97.50
24638;DHT22;12773;50.162;8.548;2023-05-27T07:40:32;17.30;98.40
24638;DHT22;12773;50.162;8.548;2023-05-27T07:43:20;17.60;98.90
24638;DHT22;12773;50.162;8.548;2023-05-27T07:46:08;17.70;97.70
24638;DHT22;12773;50.162;8.548;2023-05-27T07:48:55;17.50;97.20
24638;DHT22;12773;50.162;8.548;2023-05-27T07:51:45;17.70;98.60
24638;DHT22;12773;50.162;8.548;2023-05-27T07:54:32;17.70;97.70
24638;DHT22;12773;50.162;8.548;2023-05-27T07:57:24;17.60;97.80
24638;DHT22;12773;50.162;8.548;2023-05-27T08:00:12;17.80;97.60
24638;DHT22;12773;50.162;8.548;2023-05-27T08:03:00;18.00;97.00
24638;DHT22;12773;50.162;8.548;2023-05-27T08:05:48;18.10;97.30
24638;DHT22;12773;50.162;8.548;2023-05-27T08:08:35;18.10;97.00
24638;DHT22;12773;50.162;8.548;2023-05-27T08:11:22;18.00;97.20
24638;DHT22;12773;50.162;8.548;2023-05-27T08:14:10;17.90;97.20
24638;DHT22;12773;50.162;8.548;2023-05-27T08:16:59;18.10;97.70
24638;DHT22;12773;50.162;8.548;2023-05-27T08:19:47;18.10;97.10
24638;DHT22;12773;50.162;8.548;2023-05-27T08:22:35;18.20;97.40
24638;DHT22;12773;50.162;8.548;2023-05-27T08:25:22;18.40;98.00
24638;DHT22;12773;50.162;8.548;2023-05-27T08:28:09;18.50;97.80
24638;DHT22;12773;50.162;8.548;2023-05-27T08:31:00;18.40;97.30
24638;DHT22;12773;50.162;8.548;2023-05-27T08:33:47;18.50;97.80
24638;DHT22;12773;50.162;8.548;2023-05-27T08:36:34;18.60;97.00
24638;DHT22;12773;50.162;8.548;2023-05-27T08:39:22;18.60;97.80
24638;DHT22;12773;50.162;8.548;2023-05-27T08:42:09;18.60;98.10
24638;DHT22;12773;50.162;8.548;2023-05-27T08:45:02;18.90;98.20
24638;DHT22;12773;50.162;8.548;2023-05-27T08:47:46;19.00;97.20
24638;DHT22;12773;50.162;8.548;2023-05-27T08:50:35;19.30;97.30
24638;DHT22;12773;50.162;8.548;2023-05-27T08:53:23;19.20;96.90
24638;DHT22;12773;50.162;8.548;2023-05-27T08:56:12;19.20;96.60
24638;DHT22;12773;50.162;8.548;2023-05-27T08:59:01;19.20;96.30
24638;DHT22;12773;50.162;8.548;2023-05-27T09:01:49;19.20;96.70
24638;DHT22;12773;50.162;8.548;2023-05-27T09:04:38;19.50;96.90
24638;DHT22;12773;50.162;8.548;2023-05-27T09:07:26;19.50;96.80
24638;DHT22;12773;50.162;8.548;2023-05-27T09:10:15;19.70;96.20
24638;DHT22;12773;50.162;8.548;2023-05-27T09:13:02;20.00;96.20
24638;DHT22;12773;50.162;8.548;2023-05-27T09:15:57;19.90;95.60
24638;DHT22;12773;50.162;8.548;2023-05-27T09:18:42;19.80;96.60
24638;DHT22;12773;50.162;8.548;2023-05-27T09:21:29;19.90;95.20
24638;DHT22;12773;50.162;8.548;2023-05-27T09:24:17;20.30;96.00
24638;DHT22;12773;50.162;8.548;2023-05-27T09:27:04;20.50;94.50
24638;DHT22;12773;50.162;8.548;2023-05-27T09:29:52;20.30;94.30
24638;DHT22;12773;50.162;8.548;2023-05-27T09:32:40;20.10;94.20
24638;DHT22;12773;50.162;8.548;2023-05-27T09:35:31;20.30;94.40
24638;DHT22;12773;50.162;8.548;2023-05-27T09:38:18;20.30;94.10
24638;DHT22;12773;50.162;8.548;2023-05-27T09:41:06;20.50;94.00
24638;DHT22;12773;50.162;8.548;2023-05-27T09:43:54;20.60;94.00
24638;DHT22;12773;50.162;8.548;2023-05-27T09:46:44;20.80;93.70
24638;DHT22;12773;50.162;8.548;2023-05-27T09:49:33;21.10;94.30
24638;DHT22;12773;50.162;8.548;2023-05-27T09:52:22;20.80;93.10
24638;DHT22;12773;50.162;8.548;2023-05-27T09:55:12;21.10;94.50
24638;DHT22;12773;50.162;8.548;2023-05-27T09:58:00;21.60;94.20
24638;DHT22;12773;50.162;8.548;2023-05-27T10:00:49;22.00;93.40
24638;DHT22;12773;50.162;8.548;2023-05-27T10:03:37;22.30;94.90
24638;DHT22;12773;50.162;8.548;2023-05-27T10:06:33;21.90;91.40
24638;DHT22;12773;50.162;8.548;2023-05-27T10:09:16;21.70;91.70
24638;DHT22;12773;50.162;8.548;2023-05-27T10:12:05;21.80;92.50
24638;DHT22;12773;50.162;8.548;2023-05-27T10:14:53;21.90;92.20
24638;DHT22;12773;50.162;8.548;2023-05-27T10:17:54;22.00;92.10
24638;DHT22;12773;50.162;8.548;2023-05-27T10:20:49;22.00;92.00
24638;DHT22;12773;50.162;8.548;2023-05-27T10:23:33;22.00;91.50
24638;DHT22;12773;50.162;8.548;2023-05-27T10:26:31;21.90;91.70
24638;DHT22;12773;50.162;8.548;2023-05-27T10:29:13;22.40;93.30
24638;DHT22;12773;50.162;8.548;2023-05-27T10:32:02;22.40;91.00
24638;DHT22;12773;50.162;8.548;2023-05-27T10:34:51;22.70;91.10
24638;DHT22;12773;50.162;8.548;2023-05-27T10:37:41;23.00;90.60
24638;DHT22;12773;50.162;8.548;2023-05-27T10:40:28;23.20;90.20
24638;DHT22;12773;50.162;8.548;2023-05-27T10:43:19;23.20;88.60
24638;DHT22;12773;50.162;8.548;2023-05-27T10:46:12;23.20;89.00
24638;DHT22;12773;50.162;8.548;2023-05-27T10:49:08;23.40;88.80
24638;DHT22;12773;50.162;8.548;2023-05-27T10:51:50;23.70;85.60
24638;DHT22;12773;50.162;8.548;2023-05-27T10:54:38;23.80;87.10
24638;DHT22;12773;50.162;8.548;2023-05-27T10:57:30;24.30;88.60
24638;DHT22;12773;50.162;8.548;2023-05-27T11:00:19;24.40;82.20
24638;DHT22;12773;50.162;8.548;2023-05-27T11:03:32;24.00;82.80
24638;DHT22;12773;50.162;8.548;2023-05-27T11:06:16;23.70;82.10
24638;DHT22;12773;50.162;8.548;2023-05-27T11:09:04;24.10;84.50
24638;DHT22;12773;50.162;8.548;2023-05-27T11:11:51;24.40;81.10
24638;DHT22;12773;50.162;8.548;2023-05-27T11:14:39;24.30;81.10
24638;DHT22;12773;50.162;8.548;2023-05-27T11:17:26;24.50;83.20
24638;DHT22;12773;50.162;8.548;2023-05-27T11:20:15;24.50;75.30
24638;DHT22;12773;50.162;8.548;2023-05-27T11:23:03;24.40;77.40
24638;DHT22;12773;50.162;8.548;2023-05-27T11:25:51;24.80;76.50
24638;DHT22;12773;50.162;8.548;2023-05-27T11:28:44;24.60;74.70
24638;DHT22;12773;50.162;8.548;2023-05-27T11:31:29;24.60;73.70
24638;DHT22;12773;50.162;8.548;2023-05-27T11:34:17;24.50;72.30
24638;DHT22;12773;50.162;8.548;2023-05-27T11:37:05;24.40;72.20
24638;DHT22;12773;50.162;8.548;2023-05-27T11:39:53;24.40;74.10
24638;DHT22;12773;50.162;8.548;2023-05-27T11:42:45;24.50;75.30
24638;DHT22;12773;50.162;8.548;2023-05-27T11:45:36;24.50;73.00
24638;DHT22;12773;50.162;8.548;2023-05-27T11:48:24;24.30;70.50
24638;DHT22;12773;50.162;8.548;2023-05-27T11:51:11;24.50;71.70
24638;DHT22;12773;50.162;8.548;2023-05-27T11:54:01;24.70;73.20
24638;DHT22;12773;50.162;8.548;2023-05-27T11:56:50;25.10;72.50
24638;DHT22;12773;50.162;8.548;2023-05-27T11:59:38;25.00;71.50
24638;DHT22;12773;50.162;8.548;2023-05-27T12:02:26;25.60;71.40
24638;DHT22;12773;50.162;8.548;2023-05-27T12:05:15;25.60;71.00
24638;DHT22;12773;50.162;8.548;2023-05-27T12:08:04;25.70;68.20
24638;DHT22;12773;50.162;8.548;2023-05-27T12:10:51;25.70;73.60
24638;DHT22;12773;50.162;8.548;2023-05-27T12:13:40;26.50;66.60
24638;DHT22;12773;50.162;8.548;2023-05-27T12:16:29;26.30;65.60
24638;DHT22;12773;50.162;8.548;2023-05-27T12:19:17;25.90;65.90
24638;DHT22;12773;50.162;8.548;2023-05-27T12:22:06;25.90;67.60
24638;DHT22;12773;50.162;8.548;2023-05-27T12:24:55;26.20;66.90
24638;DHT22;12773;50.162;8.548;2023-05-27T12:27:42;26.10;65.70
24638;DHT22;12773;50.162;8.548;2023-05-27T12:30:30;26.30;67.60
24638;DHT22;12773;50.162;8.548;2023-05-27T12:33:18;26.80;65.60
24638;DHT22;12773;50.162;8.548;2023-05-27T12:36:06;27.10;63.60
24638;DHT22;12773;50.162;8.548;2023-05-27T12:38:53;26.90;60.70
24638;DHT22;12773;50.162;8.548;2023-05-27T12:41:41;26.60;60.90
24638;DHT22;12773;50.162;8.548;2023-05-27T12:44:29;26.30;60.20
24638;DHT22;12773;50.162;8.548;2023-05-27T12:47:16;26.10;61.20
24638;DHT22;12773;50.162;8.548;2023-05-27T12:50:04;26.00;60.20
24638;DHT22;12773;50.162;8.548;2023-05-27T12:52:52;26.20;62.40
24638;DHT22;12773;50.162;8.548;2023-05-27T12:55:39;26.00;59.40
24638;DHT22;12773;50.162;8.548;2023-05-27T12:58:30;25.90;59.40
24638;DHT22;12773;50.162;8.548;2023-05-27T13:01:17;25.80;58.40
24638;DHT22;12773;50.162;8.548;2023-05-27T13:04:05;26.20;59.90
24638;DHT22;12773;50.162;8.548;2023-05-27T13:06:52;26.80;61.10
24638;DHT22;12773;50.162;8.548;2023-05-27T13:09:44;26.70;57.90
24638;DHT22;12773;50.162;8.548;2023-05-27T13:12:33;27.20;60.00
24638;DHT22;12773;50.162;8.548;2023-05-27T13:15:22;27.70;60.60
24638;DHT22;12773;50.162;8.548;2023-05-27T13:18:10;28.00;58.90
24638;DHT22;12773;50.162;8.548;2023-05-27T13:21:01;28.40;55.60
24638;DHT22;12773;50.162;8.548;2023-05-27T13:23:49;28.30;52.30
24638;DHT22;12773;50.162;8.548;2023-05-27T13:26:39;28.10;53.10
24638;DHT22;12773;50.162;8.548;2023-05-27T13:29:27;28.10;54.00
24638;DHT22;12773;50.162;8.548;2023-05-27T13:32:17;27.50;52.90
24638;DHT22;12773;50.162;8.548;2023-05-27T13:35:05;27.20;54.00
24638;DHT22;12773;50.162;8.548;2023-05-27T13:37:52;27.10;54.00
24638;DHT22;12773;50.162;8.548;2023-05-27T13:40:40;26.90;52.60
24638;DHT22;12773;50.162;8.548;2023-05-27T13:43:31;26.70;52.70
24638;DHT22;12773;50.162;8.548;2023-05-27T13:46:18;26.60;52.30
24638;DHT22;12773;50.162;8.548;2023-05-27T13:49:06;26.70;53.60
24638;DHT22;12773;50.162;8.548;2023-05-27T13:51:54;27.00;53.80
24638;DHT22;12773;50.162;8.548;2023-05-27T13:54:41;27.70;56.40
24638;DHT22;12773;50.162;8.548;2023-05-27T13:57:29;27.90;50.80
24638;DHT22;12773;50.162;8.548;2023-05-27T14:00:16;27.70;50.80
24638;DHT22;12773;50.162;8.548;2023-05-27T14:03:04;27.50;51.20
24638;DHT22;12773;50.162;8.548;2023-05-27T14:05:51;27.30;51.00
24638;DHT22;12773;50.162;8.548;2023-05-27T14:08:38;27.50;52.10
24638;DHT22;12773;50.162;8.548;2023-05-27T14:11:26;27.50;50.40
24638;DHT22;12773;50.162;8.548;2023-05-27T14:14:14;27.80;50.70
24638;DHT22;12773;50.162;8.548;2023-05-27T14:17:01;28.00;50.80
24638;DHT22;12773;50.162;8.548;2023-05-27T14:19:49;28.10;49.40
24638;DHT22;12773;50.162;8.548;2023-05-27T14:22:36;28.40;51.00
24638;DHT22;12773;50.162;8.548;2023-05-27T14:25:24;28.50;48.00
24638;DHT22;12773;50.162;8.548;2023-05-27T14:28:13;28.20;48.90
24638;DHT22;12773;50.162;8.548;2023-05-27T14:31:01;28.10;50.20
24638;DHT22;12773;50.162;8.548;2023-05-27T14:33:48;28.10;49.50
24638;DHT22;12773;50.162;8.548;2023-05-27T14:36:36;28.40;50.00
24638;DHT22;12773;50.162;8.548;2023-05-27T14:39:23;28.40;50.10
24638;DHT22;12773;50.162;8.548;2023-05-27T14:42:10;28.40;49.20
24638;DHT22;12773;50.162;8.548;2023-05-27T14:44:58;28.40;50.60
24638;DHT22;12773;50.162;8.548;2023-05-27T14:47:46;28.90;50.40
24638;DHT22;12773;50.162;8.548;2023-05-27T14:50:33;28.50;49.50
24638;DHT22;12773;50.162;8.548;2023-05-27T14:53:21;28.70;49.90
24638;DHT22;12773;50.162;8.548;2023-05-27T14:56:09;28.80;52.20
24638;DHT22;12773;50.162;8.548;2023-05-27T14:58:57;28.70;50.20
24638;DHT22;12773;50.162;8.548;2023-05-27T15:01:45;28.80;48.40
24638;DHT22;12773;50.162;8.548;2023-05-27T15:04:33;28.70;48.80
24638;DHT22;12773;50.162;8.548;2023-05-27T15:07:20;28.50;47.70
24638;DHT22;12773;50.162;8.548;2023-05-27T15:10:10;28.20;48.20
24638;DHT22;12773;50.162;8.548;2023-05-27T15:12:57;28.20;48.30
24638;DHT22;12773;50.162;8.548;2023-05-27T15:15:45;28.40;47.90
24638;DHT22;12773;50.162;8.548;2023-05-27T15:18:33;28.50;47.90
24638;DHT22;12773;50.162;8.548;2023-05-27T15:21:21;28.50;47.90
24638;DHT22;12773;50.162;8.548;2023-05-27T15:24:08;28.50;46.90
24638;DHT22;12773;50.162;8.548;2023-05-27T15:26:55;28.20;48.10
24638;DHT22;12773;50.162;8.548;2023-05-27T15:29:44;28.30;47.90
24638;DHT22;12773;50.162;8.548;2023-05-27T15:32:32;28.60;48.00
24638;DHT22;12773;50.162;8.548;2023-05-27T15:35:20;28.50;48.30
24638;DHT22;12773;50.162;8.548;2023-05-27T15:38:07;28.30;47.70
24638;DHT22;12773;50.162;8.548;2023-05-27T15:40:56;28.40;48.50
24638;DHT22;12773;50.162;8.548;2023-05-27T15:43:44;28.70;49.70
24638;DHT22;12773;50.162;8.548;2023-05-27T15:46:32;29.10;46.40
24638;DHT22;12773;50.162;8.548;2023-05-27T15:49:19;29.30;48.00
24638;DHT22;12773;50.162;8.548;2023-05-27T15:52:07;29.40;46.60
24638;DHT22;12773;50.162;8.548;2023-05-27T15:55:01;29.20;45.20
24638;DHT22;12773;50.162;8.548;2023-05-27T15:57:49;29.10;46.20
24638;DHT22;12773;50.162;8.548;2023-05-27T16:00:36;29.30;47.30
24638;DHT22;12773;50.162;8.548;2023-05-27T16:03:24;29.40;45.70
24638;DHT22;12773;50.162;8.548;2023-05-27T16:06:11;29.70;46.00
24638;DHT22;12773;50.162;8.548;2023-05-27T16:08:59;29.80;45.80
24638;DHT22;12773;50.162;8.548;2023-05-27T16:11:46;30.20;46.70
24638;DHT22;12773;50.162;8.548;2023-05-27T16:14:34;30.30;45.20
24638;DHT22;12773;50.162;8.548;2023-05-27T16:17:21;29.80;45.30
24638;DHT22;12773;50.162;8.548;2023-05-27T16:20:10;29.60;45.30
24638;DHT22;12773;50.162;8.548;2023-05-27T16:22:58;29.70;45.60
24638;DHT22;12773;50.162;8.548;2023-05-27T16:25:46;29.50;45.40
24638;DHT22;12773;50.162;8.548;2023-05-27T16:28:35;29.70;45.30
24638;DHT22;12773;50.162;8.548;2023-05-27T16:31:22;29.70;45.70
24638;DHT22;12773;50.162;8.548;2023-05-27T16:34:10;29.50;45.30
24638;DHT22;12773;50.162;8.548;2023-05-27T16:36:57;29.80;45.30
24638;DHT22;12773;50.162;8.548;2023-05-27T16:39:45;29.80;44.60
24638;DHT22;12773;50.162;8.548;2023-05-27T16:42:32;29.90;44.70
24638;DHT22;12773;50.162;8.548;2023-05-27T16:45:22;29.90;44.20
24638;DHT22;12773;50.162;8.548;2023-05-27T16:48:09;29.40;45.20
24638;DHT22;12773;50.162;8.548;2023-05-27T16:50:56;28.90;45.20
24638;DHT22;12773;50.162;8.548;2023-05-27T16:53:44;28.40;45.00
24638;DHT22;12773;50.162;8.548;2023-05-27T16:56:31;28.10;45.80
24638;DHT22;12773;50.162;8.548;2023-05-27T16:59:19;27.70;47.00
24638;DHT22;12773;50.162;8.548;2023-05-27T17:02:06;27.60;47.50
24638;DHT22;12773;50.162;8.548;2023-05-27T17:05:00;27.60;47.90
24638;DHT22;12773;50.162;8.548;2023-05-27T17:07:43;27.60;47.80
24638;DHT22;12773;50.162;8.548;2023-05-27T17:10:31;27.70;47.10
24638;DHT22;12773;50.162;8.548;2023-05-27T17:13:18;27.80;47.20
24638;DHT22;12773;50.162;8.548;2023-05-27T17:16:06;28.00;46.80
24638;DHT22;12773;50.162;8.548;2023-05-27T17:18:54;28.20;46.60
24638;DHT22;12773;50.162;8.548;2023-05-27T17:21:42;28.40;46.50
24638;DHT22;12773;50.162;8.548;2023-05-27T17:24:29;28.60;45.70
24638;DHT22;12773;50.162;8.548;2023-05-27T17:27:17;28.60;45.70
24638;DHT22;12773;50.162;8.548;2023-05-27T17:30:06;28.70;45.50
24638;DHT22;12773;50.162;8.548;2023-05-27T17:32:54;28.90;45.10
24638;DHT22;12773;50.162;8.548;2023-05-27T17:35:41;29.00;44.70
24638;DHT22;12773;50.162;8.548;2023-05-27T17:38:29;29.10;45.00
24638;DHT22;12773;50.162;8.548;2023-05-27T17:41:17;29.20;45.40
24638;DHT22;12773;50.162;8.548;2023-05-27T17:44:04;29.20;45.10